Time;durP1;ratioP1;P1;durP2;ratioP2;P2;SDS_P1;SDS_P2;PMS_P1;PMS_P2;Temp;Humidity;BMP_temperature;BMP_pressure;BME280_temperature;BME280_humidity;BME280_pressure;Samples;Min_cycle;Max_cycle;Signal;HPM_P1;HPM_P2
2022/11/26 00:00:41;;;;;;;6.32;2.35;;;;;;;16.28;62.82;100721.38;4993045;28;20398;-67
2022/11/26 00:03:11;;;;;;;6.72;2.85;;;;;;;16.27;62.48;100709.06;4993136;28;20037;-68
2022/11/26 00:05:39;;;;;;;7.43;2.42;;;;;;;16.29;62.51;100716.94;4993082;28;20030;-68
2022/11/26 00:08:26;;;;;;;5.70;2.30;;;;;;;16.30;62.37;100724.81;4993021;28;20113;-67
2022/11/26 00:10:53;;;;;;;5.70;2.45;;;;;;;16.28;62.30;100716.09;4991737;28;20430;-67
2022/11/26 00:13:25;;;;;;;5.25;2.10;;;;;;;16.29;62.50;100723.09;4992723;28;20092;-67
2022/11/26 00:15:51;;;;;;;5.95;2.78;;;;;;;16.27;62.55;100730.13;4993028;28;20026;-67
2022/11/26 00:18:18;;;;;;;4.85;2.42;;;;;;;16.25;62.58;100726.69;4992950;28;20030;-68
2022/11/26 00:20:45;;;;;;;4.97;2.33;;;;;;;16.27;62.60;100730.13;4992921;28;20077;-69
2022/11/26 00:23:22;;;;;;;4.90;2.30;;;;;;;16.29;62.43;100730.13;4992672;28;20057;-67
2022/11/26 00:25:51;;;;;;;5.75;2.40;;;;;;;16.26;62.52;100731.03;4992993;28;20022;-67
2022/11/26 00:28:31;;;;;;;6.13;2.65;;;;;;;16.24;62.73;100730.22;4992385;28;20022;-67
2022/11/26 00:31:03;;;;;;;5.50;2.50;;;;;;;16.26;62.50;100731.03;4992946;28;20034;-67
2022/11/26 00:33:29;;;;;;;5.70;2.22;;;;;;;16.26;62.46;100728.41;4994210;28;20096;-68
2022/11/26 00:36:02;;;;;;;5.63;2.25;;;;;;;16.26;62.35;100722.28;4996629;28;20101;-68
2022/11/26 00:38:29;;;;;;;5.43;2.22;;;;;;;16.23;62.53;100720.59;4996541;28;20157;-68
2022/11/26 00:40:54;;;;;;;4.47;2.08;;;;;;;16.23;62.66;100717.94;4996549;28;20069;-67
2022/11/26 00:43:20;;;;;;;5.53;2.50;;;;;;;16.22;62.32;100721.47;4996215;28;20105;-67
2022/11/26 00:45:46;;;;;;;5.50;2.60;;;;;;;16.21;62.44;100714.47;4996518;28;20482;-68
2022/11/26 00:48:13;;;;;;;5.40;2.50;;;;;;;16.21;62.51;100714.47;4996536;28;20021;-67
2022/11/26 00:50:42;;;;;;;5.97;2.80;;;;;;;16.21;62.48;100703.94;4996408;28;20038;-67
2022/11/26 00:53:12;;;;;;;6.93;2.88;;;;;;;16.20;62.37;100703.09;4996275;28;20022;-67
2022/11/26 00:55:40;;;;;;;4.55;1.92;;;;;;;16.22;62.40;100695.13;4996316;28;20030;-68
2022/11/26 00:58:12;;;;;;;5.03;2.42;;;;;;;16.22;62.46;100692.50;4995941;28;20030;-67
2022/11/26 01:00:37;;;;;;;5.47;2.20;;;;;;;16.23;62.31;100691.63;4996177;28;20015;-68
2022/11/26 01:03:03;;;;;;;4.78;2.35;;;;;;;16.24;62.31;100688.06;4996010;28;20033;-67
2022/11/26 01:05:32;;;;;;;4.43;2.20;;;;;;;16.20;62.44;100683.75;4996166;28;20503;-67
2022/11/26 01:08:01;;;;;;;4.97;2.35;;;;;;;16.19;62.54;100684.66;4994734;28;20022;-67
2022/11/26 01:10:28;;;;;;;4.70;2.20;;;;;;;16.21;62.18;100682.84;4996043;28;20446;-67
2022/11/26 01:12:55;;;;;;;4.97;2.17;;;;;;;16.16;62.25;100676.81;4995802;28;20022;-67
2022/11/26 01:15:24;;;;;;;4.38;2.05;;;;;;;16.16;62.33;100679.44;4995959;28;20029;-68
2022/11/26 01:17:51;;;;;;;4.60;2.05;;;;;;;16.18;62.09;100673.25;4995845;28;20490;-67
2022/11/26 01:20:26;;;;;;;5.43;2.70;;;;;;;16.14;62.30;100670.72;4995666;28;20023;-67
2022/11/26 01:22:54;;;;;;;5.18;2.47;;;;;;;16.14;62.35;100681.25;4995684;28;20026;-67
2022/11/26 01:25:20;;;;;;;4.30;1.92;;;;;;;16.10;62.41;100673.44;4995251;28;20506;-67
2022/11/26 01:27:46;;;;;;;4.55;2.30;;;;;;;16.12;62.45;100667.28;4995577;28;20034;-67
2022/11/26 01:30:19;;;;;;;4.57;2.30;;;;;;;16.12;62.21;100676.03;4995614;28;20022;-68
2022/11/26 01:32:45;;;;;;;5.47;2.35;;;;;;;16.09;62.43;100669.06;4995733;28;20033;-67
2022/11/26 01:35:11;;;;;;;6.28;2.38;;;;;;;16.10;62.46;100670.81;4995451;28;20387;-67
2022/11/26 01:37:37;;;;;;;5.80;3.25;;;;;;;16.10;62.42;100660.28;4995393;28;20474;-67
2022/11/26 01:40:13;;;;;;;7.13;3.10;;;;;;;16.07;62.32;100670.88;4995283;28;20030;-68
2022/11/26 01:42:48;;;;;;;5.18;2.03;;;;;;;16.10;62.31;100676.06;4995349;28;20037;-67
2022/11/26 01:45:16;;;;;;;5.82;2.10;;;;;;;16.12;62.37;100677.81;4994479;28;20037;-67
2022/11/26 01:47:42;;;;;;;6.75;2.60;;;;;;;16.10;62.64;100686.63;4995189;28;20018;-68
2022/11/26 01:50:38;;;;;;;5.47;2.20;;;;;;;16.09;62.45;100689.28;4995416;28;20031;-67
2022/11/26 01:53:08;;;;;;;7.43;2.65;;;;;;;16.11;62.54;100679.56;4995233;28;20097;-67
2022/11/26 01:55:43;;;;;;;6.50;2.30;;;;;;;16.10;62.42;100678.72;4994940;28;20578;-68
2022/11/26 01:58:11;;;;;;;4.55;1.95;;;;;;;16.09;62.25;100684.00;4995317;28;20498;-67
2022/11/26 02:00:37;;;;;;;4.65;2.50;;;;;;;16.09;62.25;100679.59;4995046;28;20382;-68
2022/11/26 02:03:04;;;;;;;6.70;2.70;;;;;;;16.08;62.16;100682.28;4994865;28;20041;-67
2022/11/26 02:05:37;;;;;;;6.03;2.20;;;;;;;16.08;62.57;100683.13;4995193;28;20121;-67
2022/11/26 02:08:04;;;;;;;5.32;2.25;;;;;;;16.10;62.40;100676.06;4994811;28;20029;-67
2022/11/26 02:10:29;;;;;;;5.03;2.50;;;;;;;16.10;62.45;100670.81;4994542;28;20501;-67
2022/11/26 02:12:55;;;;;;;4.35;1.88;;;;;;;16.10;62.46;100676.06;4993512;28;20023;-69
2022/11/26 02:15:26;;;;;;;5.72;2.42;;;;;;;16.12;62.36;100683.06;4994852;28;20418;-68
2022/11/26 02:18:00;;;;;;;5.82;2.20;;;;;;;16.09;62.04;100674.31;4994724;28;20033;-67
2022/11/26 02:20:28;;;;;;;6.43;2.45;;;;;;;16.11;62.44;100682.19;4994663;28;20049;-68
2022/11/26 02:23:15;;;;;;;6.80;2.50;;;;;;;16.08;62.26;100677.84;4994398;28;20438;-68
2022/11/26 02:26:03;;;;;;;4.72;2.33;;;;;;;16.10;62.35;100678.72;4993196;28;20584;-68
2022/11/26 02:28:57;;;;;;;4.88;2.25;;;;;;;16.10;62.27;100675.19;4994272;28;20026;-68
2022/11/26 02:31:32;;;;;;;5.20;2.15;;;;;;;16.06;62.21;100679.66;4994571;28;20088;-68
2022/11/26 02:34:30;;;;;;;3.90;2.13;;;;;;;16.07;62.21;100677.88;4994527;28;20030;-68
2022/11/26 02:36:59;;;;;;;6.30;2.35;;;;;;;16.00;62.59;100671.91;4993731;28;20550;-66
2022/11/26 02:39:27;;;;;;;5.70;2.47;;;;;;;16.01;62.49;100664.84;4994015;28;20034;-67
2022/11/26 02:41:55;;;;;;;5.57;2.35;;;;;;;16.02;62.40;100669.25;4994203;28;20030;-67
2022/11/26 02:44:24;;;;;;;4.95;2.15;;;;;;;16.04;62.22;100670.91;4994199;28;20030;-66
2022/11/26 02:46:56;;;;;;;4.90;2.20;;;;;;;16.05;62.26;100670.03;4994125;28;20053;-67
2022/11/26 02:49:22;;;;;;;5.30;2.13;;;;;;;16.04;62.31;100670.91;4994116;28;20027;-67
2022/11/26 02:51:53;;;;;;;4.38;1.98;;;;;;;16.05;62.44;100667.41;4994261;28;20042;-67
2022/11/26 02:54:20;;;;;;;4.65;2.40;;;;;;;16.04;62.20;100676.19;4993821;28;20157;-67
2022/11/26 02:56:48;;;;;;;4.63;2.17;;;;;;;16.04;62.24;100673.53;4993879;28;20101;-67
2022/11/26 02:59:13;;;;;;;5.28;2.53;;;;;;;16.04;62.21;100680.59;4993785;28;20505;-67
2022/11/26 03:01:48;;;;;;;5.38;2.30;;;;;;;16.01;62.15;100680.66;4993876;28;20026;-67
2022/11/26 03:04:21;;;;;;;5.30;2.13;;;;;;;16.02;62.26;100688.53;4993936;28;20022;-67
2022/11/26 03:06:47;;;;;;;4.45;2.10;;;;;;;16.03;61.96;100678.88;4993584;28;20030;-67
2022/11/26 03:09:16;;;;;;;5.00;2.05;;;;;;;16.03;62.38;100690.25;4993762;28;20123;-67
2022/11/26 03:11:42;;;;;;;6.25;2.20;;;;;;;16.02;62.15;100688.53;4993749;28;20105;-68
2022/11/26 03:14:07;;;;;;;5.22;2.40;;;;;;;16.00;62.21;100694.72;4993810;28;20109;-67
2022/11/26 03:16:33;;;;;;;5.85;2.40;;;;;;;15.99;62.28;100693.88;4993643;28;20057;-67
2022/11/26 03:18:58;;;;;;;4.45;2.15;;;;;;;15.99;62.33;100690.34;4993663;28;20110;-67
2022/11/26 03:21:24;;;;;;;5.75;2.30;;;;;;;16.01;62.04;100684.16;4993332;28;20031;-68
2022/11/26 03:23:50;;;;;;;4.07;2.20;;;;;;;15.99;62.12;100677.19;4993222;28;20090;-68
2022/11/26 03:26:15;;;;;;;6.18;2.10;;;;;;;15.99;62.26;100678.06;4993635;28;20030;-69
2022/11/26 03:28:41;;;;;;;6.25;2.30;;;;;;;15.96;61.95;100667.59;4993384;28;20056;-67
2022/11/26 03:31:06;;;;;;;4.50;2.35;;;;;;;15.93;62.23;100678.19;4993416;28;20030;-67
2022/11/26 03:33:31;;;;;;;4.57;2.00;;;;;;;15.91;61.78;100674.66;4993468;28;20045;-67
2022/11/26 03:35:57;;;;;;;4.95;2.17;;;;;;;15.94;62.27;100669.41;4993081;28;20498;-67
2022/11/26 03:38:22;;;;;;;3.95;1.90;;;;;;;15.94;62.09;100677.28;4993434;28;20042;-67
2022/11/26 03:40:56;;;;;;;4.10;2.10;;;;;;;15.94;62.34;100674.66;4993450;28;20030;-67
2022/11/26 03:43:22;;;;;;;4.22;2.10;;;;;;;15.96;62.02;100683.38;4993494;28;20383;-67
2022/11/26 03:45:47;;;;;;;5.78;2.00;;;;;;;15.92;62.24;100674.69;4993400;28;20034;-67
2022/11/26 03:48:13;;;;;;;5.18;2.17;;;;;;;15.93;62.14;100678.19;4993339;28;20356;-67
2022/11/26 03:50:38;;;;;;;5.80;2.50;;;;;;;15.93;62.02;100667.66;4993005;28;20030;-67
2022/11/26 03:53:03;;;;;;;4.55;1.98;;;;;;;15.95;61.78;100676.38;4993283;28;20023;-67
2022/11/26 03:55:29;;;;;;;4.78;1.90;;;;;;;15.93;61.88;100670.28;4993223;28;20113;-68
2022/11/26 03:57:54;;;;;;;3.47;1.63;;;;;;;15.94;62.21;100672.03;4993166;28;20037;-67
2022/11/26 04:00:20;;;;;;;5.47;2.00;;;;;;;15.92;62.05;100671.13;4992985;28;20463;-68
2022/11/26 04:02:46;;;;;;;5.07;2.17;;;;;;;15.91;62.28;100670.28;4993171;28;20402;-68
2022/11/26 04:05:11;;;;;;;4.63;1.95;;;;;;;15.90;61.93;100665.94;4992752;28;20030;-67
2022/11/26 04:07:37;;;;;;;5.60;2.30;;;;;;;15.86;62.00;100660.72;4992955;28;20033;-67
2022/11/26 04:10:03;;;;;;;4.80;2.00;;;;;;;15.84;61.90;100668.69;4997125;28;20023;-67
2022/11/26 04:12:28;;;;;;;5.13;1.73;;;;;;;15.82;62.14;100670.47;4997017;28;20026;-68
2022/11/26 04:14:54;;;;;;;5.28;2.38;;;;;;;15.81;61.94;100666.09;4997055;28;20030;-67
2022/11/26 04:17:19;;;;;;;5.43;2.08;;;;;;;15.82;61.83;100671.34;4997015;28;20105;-67
2022/11/26 04:19:44;;;;;;;3.65;1.80;;;;;;;15.81;62.06;100664.34;4996543;28;20109;-68
2022/11/26 04:22:10;;;;;;;3.63;1.70;;;;;;;15.83;62.24;100665.16;4996967;28;20026;-67
2022/11/26 04:24:35;;;;;;;4.22;2.17;;;;;;;15.83;61.88;100662.53;4996556;28;20133;-68
2022/11/26 04:27:01;;;;;;;5.72;1.90;;;;;;;15.79;61.96;100671.38;4996701;28;20026;-68
2022/11/26 04:29:26;;;;;;;4.70;1.85;;;;;;;15.82;62.14;100666.06;4996848;28;20061;-68
2022/11/26 04:31:51;;;;;;;5.03;2.20;;;;;;;15.83;61.77;100670.44;4996775;28;20114;-67
2022/11/26 04:34:17;;;;;;;4.20;1.75;;;;;;;15.82;62.16;100666.06;4996356;28;20026;-68
2022/11/26 04:36:42;;;;;;;4.70;1.75;;;;;;;15.82;61.98;100679.22;4996680;28;20029;-68
2022/11/26 04:39:07;;;;;;;3.65;1.77;;;;;;;15.84;62.10;100680.06;4996441;28;20022;-67
2022/11/26 04:41:33;;;;;;;3.70;1.85;;;;;;;15.80;62.01;100682.78;4996609;28;20470;-68
2022/11/26 04:43:58;;;;;;;6.07;2.15;;;;;;;15.80;62.15;100685.44;4996459;28;20494;-68
2022/11/26 04:46:24;;;;;;;5.18;2.28;;;;;;;15.79;62.17;100687.19;4996450;28;20077;-68
2022/11/26 04:48:49;;;;;;;3.95;1.80;;;;;;;15.79;61.78;100686.31;4996005;28;20398;-67
2022/11/26 04:51:14;;;;;;;4.72;2.13;;;;;;;15.80;61.79;100694.16;4996292;28;20034;-68
2022/11/26 04:53:40;;;;;;;4.95;1.80;;;;;;;15.77;62.15;100691.63;4996185;28;20110;-69
2022/11/26 04:56:06;;;;;;;3.75;1.80;;;;;;;15.76;62.15;100683.75;4996359;28;20052;-68
2022/11/26 04:58:32;;;;;;;4.22;1.85;;;;;;;15.75;61.83;100685.53;4996072;28;20469;-67
2022/11/26 05:00:57;;;;;;;4.38;1.65;;;;;;;15.77;61.71;100688.97;4996211;28;20034;-68
2022/11/26 05:03:22;;;;;;;2.90;1.58;;;;;;;15.74;61.86;100689.03;4995743;28;20048;-68
2022/11/26 05:05:48;;;;;;;3.92;1.85;;;;;;;15.75;61.91;100688.16;4996044;28;20533;-67
2022/11/26 05:08:14;;;;;;;5.53;2.13;;;;;;;15.76;62.19;100687.25;4996133;28;20489;-67
2022/11/26 05:10:39;;;;;;;5.53;2.00;;;;;;;15.74;61.94;100689.03;4995981;28;20106;-67
2022/11/26 05:13:05;;;;;;;4.70;1.92;;;;;;;15.71;61.82;100697.00;4995908;28;20038;-68
2022/11/26 05:15:30;;;;;;;3.35;1.60;;;;;;;15.69;62.13;100701.44;4995945;28;20033;-67
2022/11/26 05:17:55;;;;;;;4.28;1.77;;;;;;;15.71;61.70;100692.59;4995435;28;20109;-67
2022/11/26 05:20:21;;;;;;;3.67;1.80;;;;;;;15.71;62.06;100695.22;4995807;28;20430;-67
2022/11/26 05:22:46;;;;;;;5.15;1.63;;;;;;;15.68;62.10;100704.94;4995528;28;20113;-67
2022/11/26 05:25:11;;;;;;;5.03;2.10;;;;;;;15.69;62.17;100696.16;4995633;28;20026;-68
2022/11/26 05:27:37;;;;;;;4.60;1.60;;;;;;;15.67;62.02;100696.19;4995475;28;20109;-67
2022/11/26 05:30:03;;;;;;;4.85;1.83;;;;;;;15.72;61.73;100690.84;4995797;28;20573;-69
2022/11/26 05:32:32;;;;;;;3.97;1.77;;;;;;;15.70;61.88;100690.84;4995360;28;20542;-67
2022/11/26 05:34:57;;;;;;;3.92;1.77;;;;;;;15.66;62.19;100688.31;4995573;28;20026;-67
2022/11/26 05:37:22;;;;;;;5.80;2.17;;;;;;;15.71;62.25;100697.00;4995534;28;20030;-69
2022/11/26 05:39:48;;;;;;;3.95;1.83;;;;;;;15.68;62.10;100702.31;4995444;28;20387;-67
2022/11/26 05:42:14;;;;;;;3.72;1.58;;;;;;;15.69;62.15;100696.16;4995502;28;20076;-67
2022/11/26 05:44:39;;;;;;;4.13;1.58;;;;;;;15.69;62.20;100696.16;4995465;28;20034;-68
2022/11/26 05:47:05;;;;;;;4.15;1.80;;;;;;;15.68;61.82;100699.66;4994938;28;20445;-68
2022/11/26 05:49:30;;;;;;;4.68;1.88;;;;;;;15.66;61.60;100704.09;4995321;28;20036;-68
2022/11/26 05:51:56;;;;;;;3.53;1.60;;;;;;;15.65;61.98;100705.00;4995244;28;20471;-67
2022/11/26 05:54:21;;;;;;;5.03;2.03;;;;;;;15.66;62.06;100701.47;4995147;28;20101;-67
2022/11/26 05:56:47;;;;;;;3.45;1.63;;;;;;;15.64;61.92;100719.06;4995188;28;20494;-67
2022/11/26 05:59:12;;;;;;;4.72;1.80;;;;;;;15.65;61.95;100723.44;4992979;28;20474;-68
2022/11/26 06:01:38;;;;;;;4.15;1.65;;;;;;;15.62;61.61;100721.72;4986964;28;20058;-68
2022/11/26 06:04:03;;;;;;;4.80;1.83;;;;;;;15.65;61.90;100720.78;4975479;28;20035;-67
2022/11/26 06:06:29;;;;;;;4.22;1.80;;;;;;;15.64;61.94;100721.69;4975581;28;20042;-67
2022/11/26 06:08:55;;;;;;;4.00;1.70;;;;;;;15.62;62.00;100720.84;4982088;28;20057;-67
2022/11/26 06:11:20;;;;;;;5.53;1.88;;;;;;;15.63;61.78;100707.66;4994958;28;20105;-66
2022/11/26 06:13:45;;;;;;;3.88;1.52;;;;;;;15.62;61.83;100705.94;4994669;28;20562;-67
2022/11/26 06:16:11;;;;;;;4.72;1.60;;;;;;;15.61;62.09;100719.09;4994624;28;20030;-67
2022/11/26 06:18:37;;;;;;;4.35;2.00;;;;;;;15.62;61.64;100720.84;4994772;28;20030;-68
2022/11/26 06:21:04;;;;;;;4.90;1.60;;;;;;;15.60;61.89;100717.38;4994788;28;20026;-67
2022/11/26 06:23:31;;;;;;;3.92;1.70;;;;;;;15.60;61.67;100723.53;4994450;28;20113;-67
2022/11/26 06:25:57;;;;;;;3.80;1.92;;;;;;;15.55;62.03;100728.84;4994551;28;20057;-67
2022/11/26 06:28:22;;;;;;;4.53;1.90;;;;;;;15.54;61.83;100727.13;4994323;28;20443;-68
2022/11/26 06:30:47;;;;;;;3.15;1.85;;;;;;;15.53;61.78;100732.41;4993796;28;20034;-68
2022/11/26 06:33:13;;;;;;;3.33;1.70;;;;;;;15.55;61.87;100736.75;4994564;28;20037;-68
2022/11/26 06:35:38;;;;;;;4.05;1.90;;;;;;;15.54;61.75;100747.28;4994393;28;20483;-67
2022/11/26 06:38:04;;;;;;;3.85;1.75;;;;;;;15.52;61.67;100752.59;4994347;28;20545;-68
2022/11/26 06:40:29;;;;;;;3.67;1.90;;;;;;;15.49;61.99;100768.41;4994509;28;20037;-67
2022/11/26 06:42:55;;;;;;;4.68;1.70;;;;;;;15.51;61.69;100765.75;4994325;28;20482;-66
2022/11/26 06:45:21;;;;;;;4.25;1.75;;;;;;;15.51;62.00;100766.66;4993953;28;20026;-67
2022/11/26 06:47:48;;;;;;;4.50;1.98;;;;;;;15.45;62.17;100771.97;4992878;28;20030;-68
2022/11/26 06:50:16;;;;;;;3.92;1.60;;;;;;;15.48;61.53;100760.53;4994272;28;20064;-67
2022/11/26 06:52:41;;;;;;;4.38;1.80;;;;;;;15.47;61.71;100753.56;4994179;28;20478;-67
2022/11/26 06:55:08;;;;;;;5.60;1.90;;;;;;;15.43;61.47;100758.00;4994097;28;20375;-67
2022/11/26 06:57:33;;;;;;;4.68;2.20;;;;;;;15.43;61.72;100769.41;4994006;28;20549;-67
2022/11/26 06:59:59;;;;;;;4.93;2.00;;;;;;;15.42;61.83;100766.78;4993689;28;20026;-67
2022/11/26 07:02:24;;;;;;;3.50;1.80;;;;;;;15.41;61.74;100762.44;4993877;28;20030;-67
2022/11/26 07:04:49;;;;;;;5.38;2.35;;;;;;;15.43;61.66;100765.88;4994081;28;20471;-68
2022/11/26 07:07:15;;;;;;;5.40;2.25;;;;;;;15.42;61.70;100774.69;4993882;28;20077;-67
2022/11/26 07:09:40;;;;;;;4.15;1.90;;;;;;;15.42;61.77;100780.81;4993860;28;20368;-68
2022/11/26 07:12:06;;;;;;;3.72;1.92;;;;;;;15.41;61.75;100778.22;4993974;28;20073;-67
2022/11/26 07:14:32;;;;;;;4.05;1.83;;;;;;;15.39;61.89;100770.34;4993520;28;20186;-68
2022/11/26 07:16:57;;;;;;;4.65;1.92;;;;;;;15.39;61.80;100772.09;4993853;28;20034;-67
2022/11/26 07:19:23;;;;;;;3.85;1.73;;;;;;;15.37;61.69;100773.88;4993789;28;20469;-67
2022/11/26 07:21:48;;;;;;;5.10;2.20;;;;;;;15.38;61.94;100775.63;4993601;28;20046;-67
2022/11/26 07:24:14;;;;;;;4.00;2.00;;;;;;;15.35;61.77;100765.16;4993466;28;20046;-67
2022/11/26 07:26:39;;;;;;;4.43;2.28;;;;;;;15.35;61.95;100754.66;4993452;28;20079;-67
2022/11/26 07:29:05;;;;;;;4.57;2.03;;;;;;;15.36;61.97;100753.75;4993138;28;20113;-67
2022/11/26 07:31:30;;;;;;;4.82;2.22;;;;;;;15.38;61.75;100757.19;4993595;28;20106;-68
2022/11/26 07:33:56;;;;;;;5.20;2.25;;;;;;;15.35;61.86;100754.66;4993418;28;20376;-67
2022/11/26 07:36:25;;;;;;;4.85;2.58;;;;;;;15.31;61.77;100745.94;4992185;28;20030;-67
2022/11/26 07:38:56;;;;;;;7.50;2.53;;;;;;;15.34;61.49;100745.03;4992083;28;20390;-67
2022/11/26 07:41:23;;;;;;;3.47;1.92;;;;;;;15.33;61.85;100745.88;4993395;28;20057;-68
2022/11/26 07:43:48;;;;;;;3.60;2.05;;;;;;;15.28;61.96;100759.13;4992105;28;20093;-68
2022/11/26 07:46:19;;;;;;;4.53;2.40;;;;;;;15.25;61.92;100756.56;4993332;28;20034;-68
2022/11/26 07:48:45;;;;;;;6.35;2.25;;;;;;;15.27;61.76;100767.91;4993387;28;20026;-68
2022/11/26 07:51:25;;;;;;;5.40;2.60;;;;;;;15.24;61.69;100773.19;4992058;28;20541;-68
2022/11/26 07:53:51;;;;;;;4.60;2.70;;;;;;;15.22;61.81;100765.38;4993207;28;20036;-68
2022/11/26 07:56:17;;;;;;;5.00;2.42;;;;;;;15.22;61.58;100778.50;4993174;28;20401;-67
2022/11/26 07:58:43;;;;;;;5.18;2.47;;;;;;;15.22;61.83;100783.78;4991627;28;20038;-67
2022/11/26 08:01:21;;;;;;;4.68;2.40;;;;;;;15.25;61.84;100790.75;4988540;28;20415;-68
2022/11/26 08:03:48;;;;;;;4.72;2.20;;;;;;;15.25;62.14;100799.47;4988478;28;20113;-67
2022/11/26 08:06:20;;;;;;;4.47;2.25;;;;;;;15.29;61.88;100813.44;4987663;28;20026;-68
2022/11/26 08:08:46;;;;;;;4.88;2.78;;;;;;;15.31;62.05;100806.44;4986579;28;20114;-68
2022/11/26 08:11:17;;;;;;;5.07;2.65;;;;;;;15.33;62.07;100819.53;4991291;28;20394;-67
2022/11/26 08:13:43;;;;;;;6.18;2.92;;;;;;;15.30;62.00;100826.59;4993148;28;20049;-67
2022/11/26 08:16:09;;;;;;;7.38;2.78;;;;;;;15.34;62.13;100831.81;4992685;28;20031;-67
2022/11/26 08:18:35;;;;;;;6.78;2.72;;;;;;;15.32;61.90;100833.56;4992422;28;20142;-67
2022/11/26 08:21:01;;;;;;;5.78;3.50;;;;;;;15.33;61.98;100835.31;4992380;28;20022;-67
2022/11/26 08:23:28;;;;;;;5.97;3.47;;;;;;;15.28;61.39;100833.63;4992366;28;20177;-67
2022/11/26 08:25:54;;;;;;;6.78;3.40;;;;;;;15.29;61.50;100830.13;4989554;28;20053;-68
2022/11/26 08:28:19;;;;;;;6.43;3.17;;;;;;;15.29;61.48;100819.59;4992734;28;20058;-67
2022/11/26 08:30:45;;;;;;;7.68;3.53;;;;;;;15.32;61.35;100795.00;4988690;28;20510;-68
2022/11/26 08:33:10;;;;;;;7.68;3.03;;;;;;;15.33;61.35;100793.22;4992118;28;20026;-67
2022/11/26 08:35:36;;;;;;;6.03;3.45;;;;;;;15.32;61.26;100788.88;4992425;28;20544;-67
2022/11/26 08:38:02;;;;;;;9.82;4.03;;;;;;;15.33;61.18;100777.44;4984011;28;20039;-68
2022/11/26 08:40:27;;;;;;;7.72;4.25;;;;;;;15.29;60.98;100760.84;4987623;28;20389;-67
2022/11/26 08:42:53;;;;;;;7.38;4.18;;;;;;;15.32;61.13;100775.72;4992254;28;20023;-67
2022/11/26 08:45:18;;;;;;;6.43;3.65;;;;;;;15.31;60.81;100774.88;4990647;28;20053;-67
2022/11/26 08:47:44;;;;;;;7.00;3.80;;;;;;;15.30;60.87;100759.97;4991020;28;20098;-67
2022/11/26 08:50:10;;;;;;;6.20;3.63;;;;;;;15.26;60.90;100743.38;4991840;28;20093;-68
2022/11/26 08:52:35;;;;;;;6.53;3.53;;;;;;;15.26;61.00;100751.25;4991862;28;20434;-67
2022/11/26 08:55:01;;;;;;;6.47;4.03;;;;;;;15.24;60.76;100758.31;4993756;28;20062;-67
2022/11/26 08:57:26;;;;;;;8.00;3.92;;;;;;;15.26;60.76;100756.50;4995275;28;20481;-68
2022/11/26 08:59:53;;;;;;;6.32;3.38;;;;;;;15.22;60.78;100752.22;4994488;28;20026;-68
2022/11/26 09:02:20;;;;;;;7.57;4.03;;;;;;;15.20;60.67;100746.09;4994327;28;20034;-67
2022/11/26 09:04:48;;;;;;;6.57;3.70;;;;;;;15.17;60.47;100754.06;4991471;28;20060;-68
2022/11/26 09:07:14;;;;;;;7.15;4.07;;;;;;;15.17;60.45;100747.00;4987689;28;20038;-67
2022/11/26 09:09:39;;;;;;;8.15;4.05;;;;;;;15.17;60.60;100748.78;4989630;28;20544;-68
2022/11/26 09:12:05;;;;;;;6.80;3.88;;;;;;;15.19;61.06;100747.00;4990387;28;20380;-67
2022/11/26 09:14:36;;;;;;;8.25;4.80;;;;;;;15.21;61.08;100742.56;4989958;28;20035;-68
2022/11/26 09:17:01;;;;;;;9.48;4.78;;;;;;;15.24;61.26;100750.41;4992905;28;20126;-67
2022/11/26 09:19:27;;;;;;;14.57;6.18;;;;;;;15.23;61.26;100738.16;4990435;28;20035;-67
2022/11/26 09:21:53;;;;;;;13.35;6.72;;;;;;;15.25;61.18;100744.25;4991653;28;20489;-67
2022/11/26 09:24:20;;;;;;;11.07;5.72;;;;;;;15.24;61.63;100745.16;4988141;28;20053;-67
2022/11/26 09:26:47;;;;;;;12.75;5.47;;;;;;;15.20;61.57;100740.84;4993832;28;20508;-69
2022/11/26 09:29:14;;;;;;;7.15;4.10;;;;;;;15.22;61.80;100743.44;4977769;28;20034;-68
2022/11/26 09:31:40;;;;;;;11.20;4.70;;;;;;;15.25;61.81;100741.63;4975787;28;20034;-67
2022/11/26 09:34:06;;;;;;;8.90;4.82;;;;;;;15.25;61.77;100738.16;4975681;28;20038;-67
2022/11/26 09:36:31;;;;;;;8.70;5.00;;;;;;;15.24;62.02;100732.00;4990839;28;20027;-67
2022/11/26 09:38:58;;;;;;;7.57;4.82;;;;;;;15.25;62.26;100736.38;4975576;28;20030;-67
2022/11/26 09:41:29;;;;;;;9.20;5.18;;;;;;;15.26;62.36;100729.38;4992698;28;20093;-67
2022/11/26 09:44:42;;;;;;;8.70;4.90;;;;;;;15.23;62.21;100717.13;4995374;28;20668;-67
2022/11/26 09:47:16;;;;;;;7.50;4.90;;;;;;;15.27;62.00;100704.78;4950692;29;20051;-69
2022/11/26 09:49:50;;;;;;;8.77;4.57;;;;;;;15.26;62.33;100714.44;4933907;29;20118;-67
2022/11/26 09:52:19;;;;;;;8.15;4.35;;;;;;;15.26;61.90;100713.59;4953362;29;20589;-68
2022/11/26 09:54:45;;;;;;;7.82;4.20;;;;;;;15.24;62.34;100716.22;4950308;29;20110;-67
2022/11/26 09:57:28;;;;;;;6.63;3.83;;;;;;;15.26;62.36;100709.19;4952741;29;20408;-67
2022/11/26 09:59:55;;;;;;;9.23;4.45;;;;;;;15.27;62.29;100696.91;4952064;29;20031;-67
2022/11/26 10:02:21;;;;;;;6.78;3.72;;;;;;;15.28;62.23;100707.41;4952976;29;20027;-67
2022/11/26 10:04:47;;;;;;;7.03;4.47;;;;;;;15.28;62.01;100709.16;4950183;29;20102;-67
2022/11/26 10:07:59;;;;;;;10.05;4.07;;;;;;;15.26;62.14;100709.19;4950694;28;20491;-67
2022/11/26 10:10:40;;;;;;;7.00;3.65;;;;;;;15.31;61.96;100714.38;4895557;29;20028;-67
2022/11/26 10:13:36;;;;;;;7.38;3.92;;;;;;;15.26;62.30;100722.31;4893259;29;20033;-68
2022/11/26 10:16:19;;;;;;;6.80;3.58;;;;;;;15.28;62.20;100728.44;4892883;29;20044;-67
2022/11/26 10:18:50;;;;;;;6.90;3.97;;;;;;;15.29;62.19;100722.28;4894264;29;20118;-68
2022/11/26 10:21:21;;;;;;;6.72;3.88;;;;;;;15.30;62.04;100725.75;4875551;29;20406;-67
2022/11/26 10:24:20;;;;;;;6.28;3.55;;;;;;;15.30;62.09;100715.25;4938630;29;20079;-68
2022/11/26 10:26:47;;;;;;;10.30;4.28;;;;;;;15.27;62.24;100700.38;4951428;29;20039;-68
2022/11/26 10:29:28;;;;;;;7.20;4.05;;;;;;;15.26;62.59;100701.28;4953004;29;20559;-68
2022/11/26 10:32:00;;;;;;;7.80;3.90;;;;;;;15.25;62.72;100686.41;4947817;29;20035;-68
2022/11/26 10:34:49;;;;;;;6.53;3.90;;;;;;;15.29;62.65;100688.09;4944730;29;20092;-70
2022/11/26 10:37:15;;;;;;;7.90;4.28;;;;;;;15.29;62.66;100682.84;4954331;29;20035;-69
2022/11/26 10:39:41;;;;;;;8.15;3.90;;;;;;;15.30;62.87;100678.44;4953050;29;20035;-68
2022/11/26 10:42:18;;;;;;;8.73;3.95;;;;;;;15.30;62.65;100684.56;4989428;28;20509;-68
2022/11/26 10:44:44;;;;;;;7.70;4.05;;;;;;;15.33;62.50;100675.75;4994285;28;20486;-68
2022/11/26 10:47:30;;;;;;;8.13;3.78;;;;;;;15.34;62.67;100684.53;4994190;28;20034;-69
2022/11/26 10:50:01;;;;;;;6.40;3.45;;;;;;;15.33;62.92;100678.38;4991303;28;20406;-68
2022/11/26 10:52:32;;;;;;;7.88;3.75;;;;;;;15.36;62.74;100677.47;4993415;28;20080;-67
2022/11/26 10:55:07;;;;;;;7.28;3.70;;;;;;;15.39;62.88;100677.41;4993419;28;20026;-67
2022/11/26 10:57:36;;;;;;;8.23;3.83;;;;;;;15.40;62.57;100676.53;4992681;28;20073;-66
2022/11/26 11:00:03;;;;;;;8.80;4.03;;;;;;;15.41;62.80;100686.16;4993957;28;20138;-67
2022/11/26 11:02:33;;;;;;;6.72;3.80;;;;;;;15.42;62.81;100678.25;4993362;28;20113;-67
2022/11/26 11:05:03;;;;;;;6.78;3.92;;;;;;;15.44;63.00;100670.28;4992530;28;20139;-67
2022/11/26 11:07:37;;;;;;;6.72;3.90;;;;;;;15.45;62.91;100672.03;4993206;28;20038;-67
2022/11/26 11:10:08;;;;;;;6.82;3.92;;;;;;;15.45;62.85;100666.75;4993626;28;20092;-67
2022/11/26 11:12:39;;;;;;;7.28;3.97;;;;;;;15.46;62.97;100662.38;4993850;28;20042;-67
2022/11/26 11:15:17;;;;;;;7.32;4.28;;;;;;;15.46;62.70;100660.63;4993482;28;20028;-67
2022/11/26 11:17:44;;;;;;;6.80;3.70;;;;;;;15.49;62.67;100657.94;4992386;28;20031;-67
2022/11/26 11:20:15;;;;;;;7.68;3.63;;;;;;;15.49;62.93;100660.56;4993221;28;20433;-67
2022/11/26 11:22:44;;;;;;;7.97;3.85;;;;;;;15.49;62.64;100657.94;4983469;28;20066;-67
2022/11/26 11:25:25;;;;;;;6.15;3.65;;;;;;;15.48;62.53;100653.56;4973411;28;20039;-67
2022/11/26 11:27:53;;;;;;;6.75;3.92;;;;;;;15.51;62.72;100644.75;4984862;28;20084;-68
2022/11/26 11:30:27;;;;;;;6.15;3.53;;;;;;;15.48;62.89;100636.91;4990471;28;20077;-67